createdAt,value
2023-05-11T00:00:42.939Z,11.63
2023-05-11T00:03:10.537Z,11.52
2023-05-11T00:05:37.977Z,11.67
2023-05-11T00:08:05.311Z,11.46
2023-05-11T00:10:33.590Z,11.52
2023-05-11T00:13:00.800Z,11.46
2023-05-11T00:15:29.460Z,11.52
2023-05-11T00:17:57.072Z,11.70
2023-05-11T00:20:24.323Z,11.23
2023-05-11T00:22:51.654Z,11.13
2023-05-11T00:25:19.091Z,11.16
2023-05-11T00:27:46.352Z,11.12
2023-05-11T00:30:14.061Z,11.16
2023-05-11T00:32:44.359Z,11.00
2023-05-11T00:35:12.973Z,10.93
2023-05-11T00:37:40.661Z,11.09
2023-05-11T00:40:11.279Z,11.05
2023-05-11T00:42:38.841Z,11.08
2023-05-11T00:45:08.361Z,10.96
2023-05-11T00:47:35.689Z,10.79
2023-05-11T00:50:05.496Z,11.02
2023-05-11T00:52:32.919Z,10.92
2023-05-11T00:55:01.171Z,10.77
2023-05-11T00:57:28.819Z,10.71
2023-05-11T00:59:56.261Z,10.63
2023-05-11T01:02:23.862Z,10.49
2023-05-11T01:04:51.278Z,10.55
2023-05-11T01:07:26.327Z,10.75
2023-05-11T01:10:06.228Z,10.70
2023-05-11T01:12:41.415Z,10.84
2023-05-11T01:15:11.786Z,10.77
2023-05-11T01:17:46.025Z,10.65
2023-05-11T01:20:18.834Z,10.71
2023-05-11T01:23:18.497Z,10.65
2023-05-11T01:26:09.861Z,10.50
2023-05-11T01:29:18.747Z,10.36
2023-05-11T01:31:49.642Z,10.33
2023-05-11T01:34:19.205Z,10.31
2023-05-11T01:36:52.252Z,10.43
2023-05-11T01:39:33.058Z,10.43
2023-05-11T01:42:06.731Z,10.74
2023-05-11T01:44:35.488Z,10.48
2023-05-11T01:47:06.174Z,10.51
2023-05-11T01:49:37.540Z,10.50
2023-05-11T01:52:06.818Z,10.66
2023-05-11T01:54:36.751Z,10.43
2023-05-11T01:57:04.991Z,10.31
2023-05-11T01:59:33.987Z,10.21
2023-05-11T02:02:02.803Z,10.28
2023-05-11T02:04:32.005Z,10.27
2023-05-11T02:07:01.222Z,10.20
2023-05-11T02:09:31.363Z,10.38
2023-05-11T02:12:01.191Z,10.59
2023-05-11T02:14:29.537Z,10.37
2023-05-11T02:16:58.033Z,10.13
2023-05-11T02:19:26.622Z,10.16
2023-05-11T02:21:56.662Z,10.00
2023-05-11T02:24:27.211Z,9.91
2023-05-11T02:26:54.700Z,9.81
2023-05-11T02:29:21.934Z,9.86
2023-05-11T02:31:52.060Z,9.79
2023-05-11T02:34:26.271Z,9.78
2023-05-11T02:36:57.228Z,9.82
2023-05-11T02:39:32.212Z,9.84
2023-05-11T02:42:06.310Z,9.82
2023-05-11T02:44:36.338Z,9.74
2023-05-11T02:47:07.627Z,9.70
2023-05-11T02:49:38.010Z,9.68
2023-05-11T02:52:08.353Z,9.64
2023-05-11T02:54:38.855Z,9.67
2023-05-11T02:57:06.161Z,9.76
2023-05-11T02:59:33.827Z,9.85
2023-05-11T03:02:01.205Z,9.79
2023-05-11T03:04:30.033Z,9.82
2023-05-11T03:06:57.621Z,9.86
2023-05-11T03:09:26.341Z,9.90
2023-05-11T03:11:56.310Z,9.82
2023-05-11T03:14:23.713Z,9.77
2023-05-11T03:16:52.282Z,9.71
2023-05-11T03:19:19.928Z,9.76
2023-05-11T03:21:49.860Z,9.77
2023-05-11T03:24:17.978Z,9.77
2023-05-11T03:26:47.686Z,9.78
2023-05-11T03:29:18.346Z,9.82
2023-05-11T03:31:45.720Z,9.77
2023-05-11T03:34:12.957Z,9.76
2023-05-11T03:36:40.884Z,9.82
2023-05-11T03:39:09.157Z,9.84
2023-05-11T03:41:39.056Z,9.85
2023-05-11T03:44:10.723Z,9.89
2023-05-11T03:46:40.924Z,9.98
2023-05-11T03:49:09.667Z,10.04
2023-05-11T03:51:39.850Z,10.08
2023-05-11T03:54:07.535Z,10.13
2023-05-11T03:56:35.911Z,10.14
2023-05-11T03:59:03.792Z,10.31
2023-05-11T04:01:32.960Z,10.34
2023-05-11T04:04:00.418Z,10.36
2023-05-11T04:06:27.721Z,10.37
2023-05-11T04:08:55.663Z,10.43
2023-05-11T04:11:22.832Z,10.45
2023-05-11T04:13:50.084Z,10.49
2023-05-11T04:16:17.337Z,10.54
2023-05-11T04:18:46.721Z,10.63
2023-05-11T04:21:14.262Z,10.65
2023-05-11T04:23:41.453Z,10.72
2023-05-11T04:26:08.679Z,10.80
2023-05-11T04:28:36.047Z,10.99
2023-05-11T04:31:03.327Z,11.19
2023-05-11T04:33:31.601Z,11.21
2023-05-11T04:36:00.213Z,11.48
2023-05-11T04:38:28.506Z,11.48
2023-05-11T04:40:55.724Z,11.55
2023-05-11T04:43:23.007Z,11.73
2023-05-11T04:45:53.172Z,11.91
2023-05-11T04:48:20.883Z,12.17
2023-05-11T04:50:48.448Z,12.51
2023-05-11T04:53:17.025Z,12.81
2023-05-11T04:55:44.522Z,12.82
2023-05-11T04:58:11.763Z,13.11
2023-05-11T05:00:38.941Z,13.41
2023-05-11T05:03:06.192Z,13.75
2023-05-11T05:05:33.604Z,13.84
2023-05-11T05:08:00.853Z,13.77
2023-05-11T05:10:29.508Z,13.95
2023-05-11T05:12:57.249Z,14.13
2023-05-11T05:15:25.681Z,14.26
2023-05-11T05:17:52.913Z,14.37
2023-05-11T05:20:22.695Z,14.55
2023-05-11T05:22:49.941Z,14.71
2023-05-11T05:25:18.261Z,14.96
2023-05-11T05:27:46.964Z,14.82
2023-05-11T05:30:14.271Z,14.89
2023-05-11T05:32:41.563Z,14.88
2023-05-11T05:35:09.565Z,14.87
2023-05-11T05:37:36.758Z,14.99
2023-05-11T05:40:04.902Z,14.95
2023-05-11T05:42:32.479Z,15.06
2023-05-11T05:45:01.018Z,15.16
2023-05-11T05:47:28.311Z,15.21
2023-05-11T05:49:55.580Z,15.22
2023-05-11T05:52:22.882Z,15.33
2023-05-11T05:54:51.422Z,15.46
2023-05-11T05:57:18.653Z,15.71
2023-05-11T05:59:45.875Z,15.81
2023-05-11T06:02:14.712Z,15.84
2023-05-11T06:04:42.541Z,15.87
2023-05-11T06:07:11.183Z,16.04
2023-05-11T06:09:39.273Z,16.15
2023-05-11T06:12:09.494Z,16.46
2023-05-11T06:14:36.681Z,16.61
2023-05-11T06:17:03.886Z,16.87
2023-05-11T06:19:32.507Z,17.11
2023-05-11T06:21:59.789Z,16.92
2023-05-11T06:24:26.977Z,16.98
2023-05-11T06:26:56.018Z,17.18
2023-05-11T06:29:23.391Z,17.46
2023-05-11T06:31:50.916Z,17.39
2023-05-11T06:34:18.839Z,17.59
2023-05-11T06:36:47.430Z,17.34
2023-05-11T06:39:14.667Z,17.38
2023-05-11T06:41:41.924Z,17.82
2023-05-11T06:44:09.182Z,18.09
2023-05-11T06:46:36.443Z,18.12
2023-05-11T06:49:03.670Z,18.12
2023-05-11T06:51:30.940Z,18.13
2023-05-11T06:54:00.624Z,18.55
2023-05-11T06:56:28.751Z,18.71
2023-05-11T06:58:56.932Z,18.77
2023-05-11T07:01:24.188Z,18.80
2023-05-11T07:03:54.951Z,18.75
2023-05-11T07:06:22.328Z,18.68
2023-05-11T07:08:49.572Z,18.61
2023-05-11T07:11:18.238Z,18.75
2023-05-11T07:13:45.774Z,18.91
2023-05-11T07:16:12.992Z,19.07
2023-05-11T07:18:40.424Z,19.05
2023-05-11T07:21:07.763Z,18.93
2023-05-11T07:23:35.966Z,19.06
2023-05-11T07:26:05.629Z,18.98
2023-05-11T07:28:34.534Z,18.78
2023-05-11T07:31:01.829Z,18.70
2023-05-11T07:33:29.712Z,18.86
2023-05-11T07:35:56.724Z,18.98
2023-05-11T07:38:26.139Z,19.14
2023-05-11T07:40:53.470Z,18.98
2023-05-11T07:43:20.652Z,19.13
2023-05-11T07:45:49.268Z,19.27
2023-05-11T07:48:16.697Z,18.94
2023-05-11T07:50:44.050Z,19.06
2023-05-11T07:53:11.870Z,18.97
2023-05-11T07:55:39.022Z,19.17
2023-05-11T07:58:07.381Z,19.37
2023-05-11T08:00:34.691Z,19.42
2023-05-11T08:03:03.660Z,19.50
2023-05-11T08:05:31.064Z,19.51
2023-05-11T08:07:58.693Z,19.66
2023-05-11T08:10:26.011Z,19.79
2023-05-11T08:12:53.220Z,20.02
2023-05-11T08:15:20.844Z,20.11
2023-05-11T08:17:51.007Z,20.15
2023-05-11T08:20:20.030Z,20.15
2023-05-11T08:22:47.274Z,20.26
2023-05-11T08:25:14.843Z,20.20
2023-05-11T08:27:42.497Z,20.34
2023-05-11T08:30:11.930Z,20.51
2023-05-11T08:32:57.285Z,20.82
2023-05-11T08:35:27.445Z,21.00
2023-05-11T08:37:54.663Z,21.08
2023-05-11T08:40:26.573Z,21.18
2023-05-11T08:42:55.771Z,21.65
2023-05-11T08:45:23.554Z,21.88
2023-05-11T08:47:51.087Z,22.42
2023-05-11T08:50:18.110Z,22.86
2023-05-11T08:52:46.649Z,23.79
2023-05-11T08:55:13.903Z,23.60
2023-05-11T08:57:44.563Z,23.65
2023-05-11T09:00:12.893Z,24.90
2023-05-11T09:02:40.609Z,26.57
2023-05-11T09:05:09.386Z,26.74
2023-05-11T09:07:38.712Z,26.06
2023-05-11T09:10:08.651Z,26.58
2023-05-11T09:12:36.191Z,27.09
2023-05-11T09:15:03.755Z,26.84
2023-05-11T09:17:31.011Z,26.23
2023-05-11T09:20:01.405Z,26.22
2023-05-11T09:22:31.000Z,26.40
2023-05-11T09:25:04.463Z,26.04
2023-05-11T09:27:33.154Z,25.85
2023-05-11T09:30:11.008Z,25.82
2023-05-11T09:32:47.133Z,25.17
2023-05-11T09:35:22.700Z,25.26
2023-05-11T09:38:01.091Z,24.44
2023-05-11T09:40:34.204Z,24.57
2023-05-11T09:43:03.692Z,24.48
2023-05-11T09:45:41.789Z,24.26
2023-05-11T09:48:24.583Z,24.56
2023-05-11T09:50:58.077Z,24.52
2023-05-11T09:53:33.552Z,24.31
2023-05-11T09:56:00.790Z,24.77
2023-05-11T09:58:44.797Z,24.82
2023-05-11T10:01:12.232Z,24.67
2023-05-11T10:03:46.406Z,25.23
2023-05-11T10:06:13.745Z,25.57
2023-05-11T10:08:41.680Z,25.24
2023-05-11T10:11:11.752Z,24.73
2023-05-11T10:13:43.161Z,25.51
2023-05-11T10:16:12.600Z,25.51
2023-05-11T10:18:40.724Z,24.88
2023-05-11T10:21:08.713Z,25.76
2023-05-11T10:23:43.345Z,26.86
2023-05-11T10:26:11.021Z,26.37
2023-05-11T10:28:42.321Z,25.54
2023-05-11T10:33:38.634Z,26.06
2023-05-11T10:36:08.910Z,26.62
2023-05-11T10:38:36.185Z,25.56
2023-05-11T10:41:07.466Z,25.37
2023-05-11T10:43:54.156Z,25.60
2023-05-11T10:46:37.814Z,26.28
2023-05-11T10:49:26.852Z,25.58
2023-05-11T10:52:21.970Z,25.30
2023-05-11T10:55:02.013Z,26.24
2023-05-11T10:57:43.322Z,26.65
2023-05-11T11:00:52.810Z,27.26
2023-05-11T11:03:20.289Z,27.41
2023-05-11T11:05:47.635Z,28.22
2023-05-11T11:08:14.967Z,27.64
2023-05-11T11:10:42.545Z,26.94
2023-05-11T11:13:11.036Z,25.13
2023-05-11T11:16:10.364Z,23.38
2023-05-11T11:18:38.176Z,23.37
2023-05-11T11:21:05.664Z,23.21
2023-05-11T11:23:47.096Z,23.17
2023-05-11T11:26:15.467Z,23.19
2023-05-11T11:29:08.411Z,23.38
2023-05-11T11:31:37.972Z,24.29
2023-05-11T11:34:36.361Z,24.58
2023-05-11T11:37:04.354Z,23.83
2023-05-11T11:39:49.392Z,24.18
2023-05-11T11:42:19.637Z,24.84
2023-05-11T11:44:47.876Z,24.38
2023-05-11T11:47:18.395Z,23.87
2023-05-11T11:49:46.823Z,23.20
2023-05-11T11:52:14.957Z,23.47
2023-05-11T11:54:43.963Z,23.44
2023-05-11T11:57:43.602Z,23.20
2023-05-11T12:00:14.457Z,23.53
2023-05-11T12:02:45.797Z,23.85
2023-05-11T12:05:15.017Z,23.52
2023-05-11T12:07:44.007Z,23.39
2023-05-11T12:10:13.209Z,23.60
2023-05-11T12:12:40.695Z,24.58
2023-05-11T12:15:09.124Z,24.50
2023-05-11T12:17:38.780Z,24.10
2023-05-11T12:20:18.174Z,23.58
2023-05-11T12:22:46.335Z,23.89
2023-05-11T12:25:14.337Z,24.78
2023-05-11T12:27:48.146Z,26.08
2023-05-11T12:30:25.257Z,26.84
2023-05-11T12:35:26.066Z,25.06
2023-05-11T12:37:53.963Z,23.99
2023-05-11T12:40:21.849Z,24.82
2023-05-11T12:42:52.423Z,24.96
2023-05-11T12:45:21.858Z,23.99
2023-05-11T12:47:50.694Z,24.87
2023-05-11T12:50:18.890Z,23.78
2023-05-11T12:52:47.990Z,24.23
2023-05-11T12:55:25.842Z,24.51
2023-05-11T12:57:53.075Z,25.72
2023-05-11T13:00:21.774Z,26.45
2023-05-11T13:02:50.598Z,26.48
2023-05-11T13:05:23.197Z,26.48
2023-05-11T13:07:59.088Z,26.52
2023-05-11T13:10:26.922Z,26.97
2023-05-11T13:12:54.699Z,27.18
2023-05-11T13:15:24.330Z,27.00
2023-05-11T13:17:56.866Z,26.46
2023-05-11T13:20:29.238Z,26.66
2023-05-11T13:23:09.574Z,26.97
2023-05-11T13:25:52.765Z,27.13
2023-05-11T13:28:22.476Z,25.88
2023-05-11T13:30:50.243Z,26.01
2023-05-11T13:33:17.701Z,26.01
2023-05-11T13:35:45.669Z,25.61
2023-05-11T13:38:14.300Z,26.68
2023-05-11T13:40:44.230Z,27.26
2023-05-11T13:43:12.307Z,26.80
2023-05-11T13:45:39.785Z,25.71
2023-05-11T13:48:07.448Z,25.03
2023-05-11T13:50:34.946Z,24.60
2023-05-11T13:53:02.226Z,24.42
2023-05-11T13:55:30.836Z,23.99
2023-05-11T13:57:59.123Z,23.60
2023-05-11T14:00:26.553Z,23.44
2023-05-11T14:02:53.692Z,23.68
2023-05-11T14:05:21.063Z,23.60
2023-05-11T14:07:51.085Z,23.22
2023-05-11T14:10:19.245Z,23.26
2023-05-11T14:12:47.915Z,22.94
2023-05-11T14:15:15.491Z,23.32
2023-05-11T14:17:43.536Z,23.73
2023-05-11T14:20:13.528Z,23.81
2023-05-11T14:22:42.549Z,23.84
2023-05-11T14:25:10.262Z,23.63
2023-05-11T14:27:37.503Z,23.14
2023-05-11T14:30:07.572Z,22.97
2023-05-11T14:32:34.872Z,23.02
2023-05-11T14:35:02.181Z,23.74
2023-05-11T14:37:29.377Z,24.32
2023-05-11T14:39:56.837Z,24.58
2023-05-11T14:42:23.863Z,24.70
2023-05-11T14:44:50.999Z,24.53
2023-05-11T14:47:19.628Z,24.36
2023-05-11T14:49:46.906Z,23.92
2023-05-11T14:52:14.115Z,23.67
2023-05-11T14:54:42.397Z,23.49
2023-05-11T14:57:09.775Z,23.04
2023-05-11T14:59:47.678Z,22.98
2023-05-11T15:02:27.826Z,23.21
2023-05-11T15:04:55.137Z,23.63
2023-05-11T15:07:22.614Z,23.79
2023-05-11T15:09:53.287Z,23.67
2023-05-11T15:12:20.540Z,23.10
2023-05-11T15:14:47.756Z,22.92
2023-05-11T15:17:15.002Z,22.82
2023-05-11T15:19:43.584Z,22.61
2023-05-11T15:22:10.900Z,22.64
2023-05-11T15:24:38.388Z,22.53
2023-05-11T15:27:05.685Z,22.65
2023-05-11T15:29:32.813Z,22.56
2023-05-11T15:32:00.166Z,22.45
2023-05-11T15:34:27.634Z,22.38
2023-05-11T15:36:56.171Z,22.20
2023-05-11T15:39:23.541Z,22.14
2023-05-11T15:41:50.829Z,22.21
2023-05-11T15:44:19.227Z,21.98
2023-05-11T15:46:46.565Z,22.05
2023-05-11T15:49:13.808Z,21.94
2023-05-11T15:51:41.089Z,21.87
2023-05-11T15:54:09.779Z,21.86
2023-05-11T15:56:36.977Z,21.80
2023-05-11T15:59:04.212Z,21.83
2023-05-11T16:01:31.533Z,21.82
2023-05-11T16:03:58.910Z,21.84
2023-05-11T16:06:26.354Z,21.80
2023-05-11T16:08:53.618Z,21.90
2023-05-11T16:11:22.202Z,21.84
2023-05-11T16:13:49.418Z,21.80
2023-05-11T16:16:16.770Z,21.66
2023-05-11T16:18:44.095Z,21.63
2023-05-11T16:21:11.323Z,21.63
2023-05-11T16:23:38.613Z,21.58
2023-05-11T16:26:05.959Z,21.50
2023-05-11T16:30:54.979Z,21.42
2023-05-11T16:33:23.151Z,21.38
2023-05-11T16:35:50.579Z,21.30
2023-05-11T16:38:18.218Z,21.34
2023-05-11T16:40:46.652Z,21.37
2023-05-11T16:43:13.847Z,21.29
2023-05-11T16:45:42.709Z,21.10
2023-05-11T16:48:11.369Z,21.15
2023-05-11T16:50:38.686Z,21.13
2023-05-11T16:53:06.158Z,21.06
2023-05-11T16:55:33.399Z,21.05
2023-05-11T16:58:00.585Z,20.96
2023-05-11T17:00:27.861Z,20.95
2023-05-11T17:02:55.171Z,20.70
2023-05-11T17:05:24.032Z,20.82
2023-05-11T17:07:54.756Z,20.85
2023-05-11T17:10:22.324Z,20.77
2023-05-11T17:12:49.394Z,20.64
2023-05-11T17:15:16.640Z,20.56
2023-05-11T17:17:43.961Z,20.67
2023-05-11T17:20:12.168Z,20.63
2023-05-11T17:22:40.767Z,20.60
2023-05-11T17:25:08.806Z,20.50
2023-05-11T17:27:36.153Z,20.61
2023-05-11T17:30:03.980Z,20.56
2023-05-11T17:32:31.415Z,20.40
2023-05-11T17:35:00.561Z,20.33
2023-05-11T17:37:32.196Z,20.41
2023-05-11T17:40:01.414Z,20.38
2023-05-11T17:42:28.775Z,20.28
2023-05-11T17:44:56.115Z,20.28
2023-05-11T17:47:23.694Z,20.31
2023-05-11T17:49:50.839Z,20.44
2023-05-11T17:52:17.987Z,20.40
2023-05-11T17:54:49.546Z,20.23
2023-05-11T17:57:20.626Z,20.19
2023-05-11T17:59:47.837Z,20.13
2023-05-11T18:02:15.789Z,20.28
2023-05-11T18:04:43.025Z,19.99
2023-05-11T18:07:10.189Z,19.88
2023-05-11T18:09:37.415Z,19.82
2023-05-11T18:12:05.546Z,19.77
2023-05-11T18:14:34.109Z,19.76
2023-05-11T18:17:01.385Z,19.77
2023-05-11T18:19:28.690Z,19.68
2023-05-11T18:21:56.195Z,19.61
2023-05-11T18:24:24.413Z,19.62
2023-05-11T18:26:52.123Z,19.69
2023-05-11T18:29:19.626Z,19.75
2023-05-11T18:31:48.363Z,19.76
2023-05-11T18:34:15.583Z,19.72
2023-05-11T18:36:42.757Z,19.67
2023-05-11T18:39:11.614Z,19.52
2023-05-11T18:41:38.827Z,19.57
2023-05-11T18:44:07.455Z,19.42
2023-05-11T18:46:34.656Z,19.51
2023-05-11T18:49:03.306Z,19.52
2023-05-11T18:51:30.527Z,19.24
2023-05-11T18:53:58.194Z,19.17
2023-05-11T18:56:25.453Z,19.12
2023-05-11T18:58:52.622Z,19.12
2023-05-11T19:01:20.107Z,18.97
2023-05-11T19:03:47.398Z,18.88
2023-05-11T19:06:15.995Z,18.91
2023-05-11T19:08:44.640Z,18.87
2023-05-11T19:11:12.241Z,18.97
2023-05-11T19:13:39.863Z,18.81
2023-05-11T19:16:07.204Z,18.68
2023-05-11T19:18:34.793Z,18.69
2023-05-11T19:21:01.854Z,18.76
2023-05-11T19:23:30.535Z,18.69
2023-05-11T19:25:57.945Z,18.46
2023-05-11T19:28:25.657Z,18.31
2023-05-11T19:30:59.445Z,18.34
2023-05-11T19:33:26.625Z,18.44
2023-05-11T19:35:54.071Z,18.25
2023-05-11T19:38:21.284Z,18.26
2023-05-11T19:40:51.935Z,18.21
2023-05-11T19:43:19.421Z,18.08
2023-05-11T19:45:47.043Z,18.29
2023-05-11T19:48:14.268Z,18.26
2023-05-11T19:50:41.695Z,18.26
2023-05-11T19:53:08.940Z,18.18
2023-05-11T19:55:38.772Z,18.16
2023-05-11T19:58:07.807Z,17.92
2023-05-11T20:00:35.066Z,18.01
2023-05-11T20:03:02.342Z,18.05
2023-05-11T20:05:29.602Z,18.00
2023-05-11T20:07:56.840Z,17.94
2023-05-11T20:10:24.093Z,18.04
2023-05-11T20:12:52.388Z,18.01
2023-05-11T20:15:21.061Z,17.86
2023-05-11T20:17:48.315Z,17.84
2023-05-11T20:20:15.614Z,17.76
2023-05-11T20:22:42.954Z,17.63
2023-05-11T20:25:17.977Z,17.80
2023-05-11T20:27:46.221Z,17.82
2023-05-11T20:30:13.876Z,17.62
2023-05-11T20:34:06.818Z,17.63
2023-05-11T20:35:29.759Z,17.74
2023-05-11T20:37:57.005Z,17.82
2023-05-11T20:40:24.247Z,17.60
2023-05-11T20:42:51.534Z,17.72
2023-05-11T20:45:18.760Z,17.51
2023-05-11T20:47:47.435Z,17.44
2023-05-11T20:50:14.799Z,17.42
2023-05-11T20:52:42.260Z,17.30
2023-05-11T20:55:09.589Z,17.36
2023-05-11T20:57:36.929Z,17.22
2023-05-11T21:00:05.215Z,17.33
2023-05-11T21:02:32.644Z,17.45
2023-05-11T21:05:01.362Z,17.48
2023-05-11T21:07:29.167Z,17.42
2023-05-11T21:09:56.669Z,17.21
2023-05-11T21:12:23.986Z,17.02
2023-05-11T21:14:51.344Z,17.16
2023-05-11T21:17:18.736Z,17.11
2023-05-11T21:19:46.342Z,17.19
2023-05-11T21:22:14.958Z,17.07
2023-05-11T21:24:42.363Z,17.06
2023-05-11T21:27:09.575Z,17.00
2023-05-11T21:29:36.835Z,17.12
2023-05-11T21:32:05.053Z,17.16
2023-05-11T21:34:32.291Z,17.01
2023-05-11T21:36:59.511Z,17.22
2023-05-11T21:39:28.138Z,17.13
2023-05-11T21:41:55.704Z,16.96
2023-05-11T21:44:22.932Z,17.11
2023-05-11T21:46:50.345Z,16.92
2023-05-11T21:49:18.287Z,16.75
2023-05-11T21:51:46.168Z,16.89
2023-05-11T21:54:13.480Z,16.66
2023-05-11T21:56:44.027Z,17.02
2023-05-11T21:59:11.208Z,17.06
2023-05-11T22:01:38.427Z,16.97
2023-05-11T22:04:05.826Z,16.98
2023-05-11T22:06:34.562Z,16.83
2023-05-11T22:09:01.866Z,16.85
2023-05-11T22:11:32.118Z,16.67
2023-05-11T22:14:00.801Z,16.76
2023-05-11T22:16:28.247Z,16.66
2023-05-11T22:18:56.563Z,16.58
2023-05-11T22:21:25.065Z,16.43
2023-05-11T22:23:52.206Z,16.28
2023-05-11T22:26:20.461Z,16.49
2023-05-11T22:28:48.972Z,16.32
2023-05-11T22:31:18.626Z,16.27
2023-05-11T22:33:45.874Z,16.11
2023-05-11T22:36:13.065Z,16.49
2023-05-11T22:38:40.468Z,16.14
2023-05-11T22:41:07.662Z,16.13
2023-05-11T22:43:35.037Z,16.17
2023-05-11T22:46:03.604Z,16.09
2023-05-11T22:48:32.612Z,16.01
2023-05-11T22:50:59.827Z,15.87
2023-05-11T22:53:27.012Z,15.86
2023-05-11T22:55:54.225Z,15.98
2023-05-11T22:58:21.456Z,15.64
2023-05-11T23:00:48.762Z,15.57
2023-05-11T23:03:17.087Z,15.51
2023-05-11T23:05:45.741Z,15.67
2023-05-11T23:08:13.229Z,15.63
2023-05-11T23:10:40.541Z,15.78
2023-05-11T23:13:09.651Z,15.78
2023-05-11T23:15:36.910Z,15.68
2023-05-11T23:18:06.553Z,15.59
2023-05-11T23:20:33.853Z,15.65
2023-05-11T23:23:05.861Z,15.56
2023-05-11T23:25:33.079Z,15.42
2023-05-11T23:28:02.408Z,15.51
2023-05-11T23:30:29.984Z,15.58
2023-05-11T23:32:57.310Z,15.44
2023-05-11T23:35:24.550Z,15.36
2023-05-11T23:37:51.829Z,15.36
2023-05-11T23:40:20.742Z,15.30
2023-05-11T23:42:48.198Z,15.08
2023-05-11T23:45:15.605Z,15.06
2023-05-11T23:47:42.979Z,15.06
2023-05-11T23:50:10.971Z,15.21
2023-05-11T23:52:38.457Z,14.96
2023-05-11T23:55:06.419Z,14.94
2023-05-11T23:57:35.028Z,14.74
